createdAt,value
2022-09-23T00:01:22.428Z,988.2
2022-09-23T00:03:24.052Z,988.1
2022-09-23T00:05:25.634Z,988.2
2022-09-23T00:07:27.393Z,988.2
2022-09-23T00:09:28.817Z,988.2
2022-09-23T00:11:30.420Z,988.1
2022-09-23T00:13:31.515Z,988.1
2022-09-23T00:15:33.030Z,988.1
2022-09-23T00:17:34.240Z,988.1
2022-09-23T00:21:38.178Z,988.1
2022-09-23T00:23:39.843Z,988.1
2022-09-23T00:25:41.729Z,988
2022-09-23T00:27:43.059Z,988.1
2022-09-23T00:29:44.145Z,988.1
2022-09-23T00:31:45.192Z,988
2022-09-23T00:35:48.221Z,988.1
2022-09-23T00:37:49.776Z,988.1
2022-09-23T00:39:51.444Z,988.1
2022-09-23T00:41:52.941Z,988
2022-09-23T00:43:54.602Z,988
2022-09-23T00:45:56.288Z,988
2022-09-23T00:47:57.434Z,988
2022-09-23T00:49:58.642Z,988
2022-09-23T00:52:00.236Z,987.9
2022-09-23T00:54:02.015Z,987.9
2022-09-23T00:56:03.426Z,987.9
2022-09-23T00:58:04.501Z,987.8
2022-09-23T01:00:05.700Z,987.8
2022-09-23T01:04:08.849Z,987.9
2022-09-23T01:06:09.926Z,987.9
2022-09-23T01:08:11.701Z,987.9
2022-09-23T01:10:13.066Z,987.9
2022-09-23T01:12:14.413Z,987.8
2022-09-23T01:14:16.001Z,987.9
2022-09-23T01:16:17.783Z,987.8
2022-09-23T01:18:18.950Z,987.8
2022-09-23T01:20:20.218Z,987.8
2022-09-23T01:24:22.558Z,987.8
2022-09-23T01:26:24.143Z,987.8
2022-09-23T01:28:26.062Z,987.8
2022-09-23T01:30:27.612Z,987.8
2022-09-23T01:32:29.397Z,987.8
2022-09-23T01:34:31.082Z,987.7
2022-09-23T01:36:32.295Z,987.8
2022-09-23T01:38:33.795Z,987.8
2022-09-23T01:40:35.220Z,987.8
2022-09-23T01:42:36.727Z,987.8
2022-09-23T01:44:38.104Z,987.8
2022-09-23T01:46:39.297Z,987.7
2022-09-23T01:48:40.900Z,987.8
2022-09-23T01:50:42.412Z,987.7
2022-09-23T01:52:44.362Z,987.6
2022-09-23T01:54:46.104Z,987.6
2022-09-23T01:56:47.768Z,987.6
2022-09-23T01:58:49.548Z,987.7
2022-09-23T02:00:51.262Z,987.6
2022-09-23T02:02:53.149Z,987.6
2022-09-23T02:06:56.066Z,987.6
2022-09-23T02:08:57.462Z,987.6
2022-09-23T02:10:58.572Z,987.6
2022-09-23T02:12:59.813Z,987.5
2022-09-23T02:15:01.349Z,987.6
2022-09-23T02:17:02.921Z,987.5
2022-09-23T02:19:04.072Z,987.6
2022-09-23T02:21:05.891Z,987.7
2022-09-23T02:23:07.084Z,987.6
2022-09-23T02:25:08.495Z,987.6
2022-09-23T02:27:10.132Z,987.7
2022-09-23T02:29:11.960Z,987.6
2022-09-23T02:31:13.529Z,987.6
2022-09-23T02:33:15.358Z,987.6
2022-09-23T02:35:16.636Z,987.5
2022-09-23T02:37:18.291Z,987.5
2022-09-23T02:39:20.195Z,987.6
2022-09-23T02:41:21.437Z,987.6
2022-09-23T02:43:23.095Z,987.5
2022-09-23T02:45:24.196Z,987.5
2022-09-23T02:47:25.488Z,987.4
2022-09-23T02:49:27.327Z,987.4
2022-09-23T02:51:29.018Z,987.4
2022-09-23T02:53:30.919Z,987.3
2022-09-23T02:55:32.726Z,987.4
2022-09-23T02:57:34.524Z,987.4
2022-09-23T02:59:36.234Z,987.4
2022-09-23T03:01:38.143Z,987.3
2022-09-23T03:03:39.466Z,987.3
2022-09-23T03:05:41.005Z,987.3
2022-09-23T03:07:42.476Z,987.3
2022-09-23T03:09:44.434Z,987.3
2022-09-23T03:11:46.059Z,987.3
2022-09-23T03:13:47.661Z,987.3
2022-09-23T03:15:49.275Z,987.2
2022-09-23T03:17:51.257Z,987.2
2022-09-23T03:19:52.795Z,987.2
2022-09-23T03:21:54.610Z,987.2
2022-09-23T03:23:55.987Z,987.2
2022-09-23T03:25:57.582Z,987.2
2022-09-23T03:28:08.128Z,987.2
2022-09-23T03:30:00.802Z,987.3
2022-09-23T03:32:02.652Z,987.2
2022-09-23T03:34:04.394Z,987.3
2022-09-23T03:36:06.174Z,987.3
2022-09-23T03:38:07.229Z,987.3
2022-09-23T03:40:09.108Z,987.1
2022-09-23T03:44:12.145Z,987.1
2022-09-23T03:46:13.486Z,987.1
2022-09-23T03:48:15.174Z,987.1
2022-09-23T03:50:17.183Z,987.1
2022-09-23T03:52:19.148Z,987
2022-09-23T03:54:20.774Z,987
2022-09-23T03:56:22.517Z,987
2022-09-23T04:00:25.302Z,987.1
2022-09-23T04:02:26.678Z,987
2022-09-23T04:08:30.807Z,986.9
2022-09-23T04:10:32.048Z,986.9
2022-09-23T04:12:34.084Z,986.9
2022-09-23T04:14:35.399Z,986.8
2022-09-23T04:16:37.383Z,986.9
2022-09-23T04:18:38.452Z,986.8
2022-09-23T04:20:39.945Z,986.9
2022-09-23T04:22:41.773Z,986.9
2022-09-23T04:24:43.293Z,986.8
2022-09-23T04:26:45.178Z,986.7
2022-09-23T04:30:47.904Z,986.8
2022-09-23T04:32:49.227Z,986.8
2022-09-23T04:34:50.792Z,986.8
2022-09-23T04:36:52.342Z,986.9
2022-09-23T04:38:53.542Z,986.9
2022-09-23T04:40:55.440Z,986.9
2022-09-23T04:42:56.700Z,986.8
2022-09-23T04:44:58.735Z,986.8
2022-09-23T04:47:00.249Z,986.8
2022-09-23T04:49:01.449Z,986.9
2022-09-23T04:51:02.850Z,986.9
2022-09-23T04:53:04.813Z,986.8
2022-09-23T04:55:10.495Z,986.9
2022-09-23T04:57:07.815Z,986.9
2022-09-23T04:59:09.676Z,986.9
2022-09-23T05:01:10.934Z,986.9
2022-09-23T05:03:12.055Z,986.9
2022-09-23T05:05:13.305Z,986.9
2022-09-23T05:07:14.878Z,986.9
2022-09-23T05:09:16.366Z,986.9
2022-09-23T05:11:17.693Z,986.8
2022-09-23T05:13:19.444Z,986.8
2022-09-23T05:15:20.894Z,986.9
2022-09-23T05:17:22.764Z,986.8
2022-09-23T05:19:24.271Z,986.9
2022-09-23T05:21:25.919Z,987
2022-09-23T05:23:27.679Z,987
2022-09-23T05:25:29.375Z,986.9
2022-09-23T05:27:30.857Z,987
2022-09-23T05:29:32.093Z,986.9
2022-09-23T05:31:33.268Z,986.9
2022-09-23T05:33:34.952Z,986.8
2022-09-23T05:35:36.187Z,986.8
2022-09-23T05:39:39.541Z,986.9
2022-09-23T05:41:41.148Z,986.9
2022-09-23T05:43:43.020Z,986.9
2022-09-23T05:45:44.945Z,987
2022-09-23T05:47:46.581Z,987
2022-09-23T05:49:59.470Z,987
2022-09-23T05:51:49.416Z,987
2022-09-23T05:53:50.800Z,986.9
2022-09-23T05:55:52.074Z,986.9
2022-09-23T05:57:53.924Z,987.1
2022-09-23T05:59:55.670Z,986.9
2022-09-23T06:01:57.321Z,987
2022-09-23T06:03:58.332Z,987
2022-09-23T06:05:59.873Z,986.9
2022-09-23T06:08:01.345Z,986.9
2022-09-23T06:10:02.646Z,986.9
2022-09-23T06:12:03.925Z,986.9
2022-09-23T06:14:05.494Z,986.9
2022-09-23T06:16:07.002Z,986.9
2022-09-23T06:18:08.578Z,987
2022-09-23T06:22:12.194Z,986.9
2022-09-23T06:22:56.114Z,987
2022-09-23T06:24:57.898Z,986.8
2022-09-23T06:26:59.841Z,986.9
2022-09-23T06:29:01.564Z,986.9
2022-09-23T06:33:04.582Z,986.8
2022-09-23T06:35:05.816Z,986.8
2022-09-23T06:37:14.752Z,986.8
2022-09-23T06:39:08.957Z,986.8
2022-09-23T06:41:10.218Z,986.8
2022-09-23T06:43:11.402Z,986.8
2022-09-23T06:45:12.937Z,986.7
2022-09-23T06:47:14.031Z,986.9
2022-09-23T06:49:15.986Z,986.9
2022-09-23T06:51:17.128Z,986.9
2022-09-23T06:53:18.455Z,986.8
2022-09-23T06:55:19.939Z,986.8
2022-09-23T06:57:21.190Z,986.8
2022-09-23T06:59:22.533Z,986.9
2022-09-23T07:01:23.587Z,986.7
2022-09-23T07:03:25.329Z,986.8
2022-09-23T07:05:26.990Z,986.7
2022-09-23T07:07:28.395Z,986.7
2022-09-23T07:09:29.720Z,986.8
2022-09-23T07:11:31.465Z,986.7
2022-09-23T07:13:32.961Z,986.7
2022-09-23T07:17:36.469Z,986.7
2022-09-23T07:19:37.593Z,986.6
2022-09-23T07:21:38.641Z,986.6
2022-09-23T07:23:40.357Z,986.6
2022-09-23T07:25:42.073Z,986.6
2022-09-23T07:27:44.024Z,986.6
2022-09-23T07:31:46.610Z,986.5
2022-09-23T07:33:47.800Z,986.6
2022-09-23T07:35:49.036Z,986.6
2022-09-23T07:37:50.171Z,986.5
2022-09-23T07:39:51.091Z,986.5
2022-09-23T07:41:52.512Z,986.6
2022-09-23T07:43:54.243Z,986.6
2022-09-23T07:45:56.390Z,986.5
2022-09-23T07:47:58.223Z,986.6
2022-09-23T07:49:59.628Z,986.6
2022-09-23T07:52:00.509Z,986.6
2022-09-23T07:54:02.140Z,986.6
2022-09-23T07:56:03.302Z,986.5
2022-09-23T07:58:04.655Z,986.6
2022-09-23T08:00:05.953Z,986.5
2022-09-23T08:02:07.566Z,986.5
2022-09-23T08:04:08.619Z,986.6
2022-09-23T08:06:09.631Z,986.5
2022-09-23T08:08:10.969Z,986.5
2022-09-23T08:10:11.932Z,986.5
2022-09-23T08:12:15.985Z,986.5
2022-09-23T08:14:15.070Z,986.5
2022-09-23T08:16:16.822Z,986.6
2022-09-23T08:18:18.245Z,986.5
2022-09-23T08:20:19.212Z,986.5
2022-09-23T08:22:20.378Z,986.4
2022-09-23T08:24:21.721Z,986.5
2022-09-23T08:26:22.733Z,986.5
2022-09-23T08:28:23.747Z,986.7
2022-09-23T08:30:25.668Z,986.6
2022-09-23T08:32:27.404Z,986.5
2022-09-23T08:34:29.082Z,986.6
2022-09-23T08:38:32.638Z,986.5
2022-09-23T08:40:33.772Z,986.5
2022-09-23T08:42:35.974Z,986.5
2022-09-23T08:44:36.853Z,986.4
2022-09-23T08:46:38.660Z,986.5
2022-09-23T08:48:39.574Z,986.4
2022-09-23T08:50:40.930Z,986.3
2022-09-23T08:52:42.572Z,986.4
2022-09-23T08:54:44.200Z,986.3
2022-09-23T08:56:45.208Z,986.4
2022-09-23T08:58:46.697Z,986.3
2022-09-23T09:00:47.675Z,986.3
2022-09-23T09:02:48.892Z,986.3
2022-09-23T09:04:49.745Z,986.4
2022-09-23T09:06:53.808Z,986.3
2022-09-23T09:08:52.398Z,986.3
2022-09-23T09:10:55.017Z,986.3
2022-09-23T09:12:56.034Z,986.3
2022-09-23T09:14:57.062Z,986.1
2022-09-23T09:16:59.772Z,986.1
2022-09-23T09:18:59.048Z,986.2
2022-09-23T09:21:00.802Z,986.2
2022-09-23T09:23:02.003Z,986.1
2022-09-23T09:25:03.543Z,986.1
2022-09-23T09:27:05.251Z,986
2022-09-23T09:29:17.034Z,986.1
2022-09-23T09:31:07.187Z,986.1
2022-09-23T09:33:08.209Z,986
2022-09-23T09:35:09.194Z,986
2022-09-23T09:37:10.215Z,986
2022-09-23T09:39:11.571Z,986
2022-09-23T09:41:12.790Z,986
2022-09-23T09:43:14.131Z,986
2022-09-23T09:45:15.845Z,985.9
2022-09-23T09:47:17.046Z,985.9
2022-09-23T09:49:18.844Z,985.9
2022-09-23T09:51:20.370Z,985.9
2022-09-23T09:53:21.405Z,985.9
2022-09-23T09:55:22.802Z,985.8
2022-09-23T09:57:24.345Z,985.8
2022-09-23T09:59:25.906Z,985.8
2022-09-23T10:01:27.153Z,985.8
2022-09-23T10:03:28.390Z,985.8
2022-09-23T10:05:29.719Z,985.9
2022-09-23T10:07:31.405Z,985.8
2022-09-23T10:09:33.190Z,985.7
2022-09-23T10:11:34.185Z,985.7
2022-09-23T10:13:35.747Z,985.8
2022-09-23T10:15:40.209Z,985.7
2022-09-23T10:17:39.271Z,985.7
2022-09-23T10:19:40.661Z,985.7
2022-09-23T10:21:42.201Z,985.7
2022-09-23T10:23:43.965Z,985.6
2022-09-23T10:25:44.980Z,985.6
2022-09-23T10:27:46.160Z,985.7
2022-09-23T10:29:47.642Z,985.6
2022-09-23T10:31:49.060Z,985.7
2022-09-23T10:33:49.966Z,985.6
2022-09-23T10:35:50.989Z,985.6
2022-09-23T10:37:52.214Z,985.6
2022-09-23T10:39:53.759Z,985.6
2022-09-23T10:41:54.555Z,985.6
2022-09-23T10:43:55.794Z,985.6
2022-09-23T10:45:57.487Z,985.5
2022-09-23T10:47:59.046Z,985.6
2022-09-23T10:52:01.888Z,985.6
2022-09-23T10:54:02.926Z,985.5
2022-09-23T10:56:04.219Z,985.4
2022-09-23T10:58:05.684Z,985.5
2022-09-23T11:00:06.675Z,985.4
2022-09-23T11:02:08.254Z,985.5
2022-09-23T11:04:10.057Z,985.4
2022-09-23T11:06:10.923Z,985.3
2022-09-23T11:08:12.394Z,985.3
2022-09-23T11:12:14.396Z,985.4
2022-09-23T11:14:16.106Z,985.3
2022-09-23T11:16:17.589Z,985.3
2022-09-23T11:20:20.377Z,985.2
2022-09-23T11:22:22.097Z,985.2
2022-09-23T11:24:23.416Z,985.2
2022-09-23T11:26:25.284Z,985.1
2022-09-23T11:28:26.121Z,985.2
2022-09-23T11:30:27.165Z,985.1
2022-09-23T11:32:28.369Z,985.1
2022-09-23T11:34:29.214Z,985.1
2022-09-23T11:36:30.703Z,985.1
2022-09-23T11:38:31.594Z,985.1
2022-09-23T11:40:33.220Z,985
2022-09-23T11:42:35.047Z,985.1
2022-09-23T11:44:36.519Z,985
2022-09-23T11:46:38.073Z,984.9
2022-09-23T11:48:39.616Z,984.9
2022-09-23T11:50:41.317Z,984.8
2022-09-23T11:52:42.560Z,984.9
2022-09-23T11:54:44.225Z,984.8
2022-09-23T11:56:47.707Z,984.9
2022-09-23T11:58:48.360Z,984.8
2022-09-23T12:00:49.622Z,984.8
2022-09-23T12:02:58.716Z,984.7
2022-09-23T12:04:56.618Z,984.8
2022-09-23T12:06:51.240Z,984.8
2022-09-23T12:08:52.991Z,984.7
2022-09-23T12:10:53.944Z,984.6
2022-09-23T12:12:55.313Z,984.6
2022-09-23T12:14:56.862Z,984.6
2022-09-23T12:18:59.184Z,984.6
2022-09-23T12:21:00.747Z,984.5
2022-09-23T12:23:02.096Z,984.5
2022-09-23T12:25:02.916Z,984.5
2022-09-23T12:27:04.493Z,984.6
2022-09-23T12:29:05.847Z,984.5
2022-09-23T12:31:07.204Z,984.5
2022-09-23T12:33:08.677Z,984.6
2022-09-23T12:35:09.481Z,984.6
2022-09-23T12:37:11.279Z,984.5
2022-09-23T12:39:12.491Z,984.5
2022-09-23T12:41:14.213Z,984.5
2022-09-23T12:45:17.221Z,984.4
2022-09-23T12:47:18.197Z,984.5
2022-09-23T12:49:19.894Z,984.4
2022-09-23T12:51:21.473Z,984.5
2022-09-23T12:55:23.870Z,984.4
2022-09-23T12:57:24.946Z,984.4
2022-09-23T12:59:26.561Z,984.4
2022-09-23T13:01:27.567Z,984.4
2022-09-23T13:03:28.472Z,984.4
2022-09-23T13:05:29.277Z,984.4
2022-09-23T13:07:31.042Z,984.4
2022-09-23T13:08:24.795Z,984.3
2022-09-23T13:10:25.828Z,984.4
2022-09-23T13:12:26.715Z,984.3
2022-09-23T13:14:27.912Z,984.4
2022-09-23T13:16:28.835Z,984.2
2022-09-23T13:18:30.116Z,984.3
2022-09-23T13:22:32.180Z,984.2
2022-09-23T13:24:33.412Z,984.2
2022-09-23T13:26:34.302Z,984.1
2022-09-23T13:28:36.074Z,984.2
2022-09-23T13:32:38.913Z,984.1
2022-09-23T13:34:39.876Z,984
2022-09-23T13:36:41.288Z,984
2022-09-23T13:38:42.750Z,984
2022-09-23T13:40:44.187Z,984
2022-09-23T13:42:45.815Z,983.9
2022-09-23T13:44:47.595Z,983.9
2022-09-23T13:46:48.644Z,983.9
2022-09-23T13:48:50.167Z,984
2022-09-23T13:50:51.502Z,984
2022-09-23T13:52:53.713Z,984
2022-09-23T13:54:54.734Z,983.9
2022-09-23T13:56:56.461Z,984
2022-09-23T13:58:57.353Z,984
2022-09-23T14:00:58.464Z,983.9
2022-09-23T14:02:59.861Z,983.8
2022-09-23T14:05:00.685Z,983.8
2022-09-23T14:07:02.190Z,983.8
2022-09-23T14:09:03.860Z,983.8
2022-09-23T14:11:04.898Z,983.8
2022-09-23T14:13:05.870Z,983.7
2022-09-23T14:15:07.172Z,983.7
2022-09-23T14:17:08.183Z,983.7
2022-09-23T14:19:09.848Z,983.7
2022-09-23T14:21:11.313Z,983.7
2022-09-23T14:23:13.085Z,983.7
2022-09-23T14:25:14.028Z,983.7
2022-09-23T14:27:15.933Z,983.6
2022-09-23T14:29:17.590Z,983.7
2022-09-23T14:31:19.133Z,983.7
2022-09-23T14:33:20.297Z,983.6
2022-09-23T14:37:23.161Z,983.7
2022-09-23T14:39:24.398Z,983.6
2022-09-23T14:41:25.842Z,983.7
2022-09-23T14:43:27.602Z,983.6
2022-09-23T14:45:28.648Z,983.6
2022-09-23T14:47:29.473Z,983.6
2022-09-23T14:49:31.104Z,983.6
2022-09-23T14:51:32.422Z,983.6
2022-09-23T14:53:33.391Z,983.5
2022-09-23T14:55:34.453Z,983.5
2022-09-23T14:57:36.094Z,983.6
2022-09-23T14:59:37.649Z,983.5
2022-09-23T15:01:38.814Z,983.5
2022-09-23T15:03:39.725Z,983.5
2022-09-23T15:05:41.044Z,983.5
2022-09-23T15:09:43.952Z,983.5
2022-09-23T15:11:45.284Z,983.4
2022-09-23T15:13:46.606Z,983.4
2022-09-23T15:15:48.249Z,983.4
2022-09-23T15:17:49.893Z,983.4
2022-09-23T15:19:51.230Z,983.4
2022-09-23T15:21:52.816Z,983.4
2022-09-23T15:23:54.012Z,983.4
2022-09-23T15:25:55.613Z,983.5
2022-09-23T15:27:56.886Z,983.4
2022-09-23T15:29:58.583Z,983.4
2022-09-23T15:32:00.234Z,983.4
2022-09-23T15:34:01.744Z,983.4
2022-09-23T15:36:02.670Z,983.4
2022-09-23T15:38:04.427Z,983.4
2022-09-23T15:40:06.049Z,983.4
2022-09-23T15:42:07.105Z,983.5
2022-09-23T15:44:08.789Z,983.4
2022-09-23T15:46:09.951Z,983.4
2022-09-23T15:48:11.630Z,983.4
2022-09-23T15:50:12.464Z,983.3
2022-09-23T15:52:13.601Z,983.4
2022-09-23T15:54:15.326Z,983.3
2022-09-23T15:56:16.712Z,983.3
2022-09-23T15:58:18.509Z,983.2
2022-09-23T16:00:20.099Z,983.3
2022-09-23T16:02:21.554Z,983.2
2022-09-23T16:04:23.015Z,983.2
2022-09-23T16:06:24.594Z,983.1
2022-09-23T16:08:25.546Z,983.2
2022-09-23T16:10:26.680Z,983.2
2022-09-23T16:12:27.908Z,983.2
2022-09-23T16:14:29.501Z,983.2
2022-09-23T16:16:30.847Z,983.2
2022-09-23T16:18:31.670Z,983.3
2022-09-23T16:20:33.214Z,983.2
2022-09-23T16:22:35.025Z,983.3
2022-09-23T16:24:36.663Z,983.3
2022-09-23T16:28:39.049Z,983.3
2022-09-23T16:30:39.936Z,983.3
2022-09-23T16:34:43.547Z,983.4
2022-09-23T16:36:45.103Z,983.4
2022-09-23T16:38:46.323Z,983.3
2022-09-23T16:40:48.196Z,983.4
2022-09-23T16:42:49.945Z,983.3
2022-09-23T16:44:51.483Z,983.2
2022-09-23T16:46:52.377Z,983.3
2022-09-23T16:48:53.595Z,983.3
2022-09-23T16:50:54.516Z,983.3
2022-09-23T16:52:56.351Z,983.4
2022-09-23T16:54:57.690Z,983.4
2022-09-23T16:56:59.006Z,983.4
2022-09-23T16:59:00.575Z,983.4
2022-09-23T17:01:02.063Z,983.4
2022-09-23T17:03:03.406Z,983.4
2022-09-23T17:05:04.761Z,983.4
2022-09-23T17:07:05.690Z,983.4
2022-09-23T17:09:06.710Z,983.4
2022-09-23T17:11:08.283Z,983.4
2022-09-23T17:13:09.503Z,983.4
2022-09-23T17:15:10.671Z,983.4
2022-09-23T17:17:12.226Z,983.4
2022-09-23T17:19:13.345Z,983.4
2022-09-23T17:21:14.563Z,983.4
2022-09-23T17:23:15.557Z,983.4
2022-09-23T17:25:16.865Z,983.3
2022-09-23T17:27:18.530Z,983.3
2022-09-23T17:29:20.381Z,983.3
2022-09-23T17:31:21.521Z,983.3
2022-09-23T17:33:22.408Z,983.3
2022-09-23T17:35:23.616Z,983.4
2022-09-23T17:37:24.984Z,983.4
2022-09-23T17:39:26.259Z,983.3
2022-09-23T17:41:28.067Z,983.3
2022-09-23T17:43:29.261Z,983.4
2022-09-23T17:45:30.370Z,983.3
2022-09-23T17:47:33.456Z,983.3
2022-09-23T17:49:33.314Z,983.3
2022-09-23T17:51:34.716Z,983.3
2022-09-23T17:53:36.595Z,983.3
2022-09-23T17:55:37.821Z,983.3
2022-09-23T17:59:41.028Z,983.2
2022-09-23T18:01:42.057Z,983.3
2022-09-23T18:03:43.037Z,983.3
2022-09-23T18:05:44.654Z,983.3
2022-09-23T18:09:48.206Z,983.3
2022-09-23T18:11:49.375Z,983.2
2022-09-23T18:13:51.243Z,983.3
2022-09-23T18:15:52.445Z,983.2
2022-09-23T18:17:53.588Z,983.3
2022-09-23T18:19:54.590Z,983.2
2022-09-23T18:21:56.192Z,983.3
2022-09-23T18:24:10.720Z,983.3
2022-09-23T18:25:59.096Z,983.4
2022-09-23T18:28:00.285Z,983.3
2022-09-23T18:30:01.937Z,983.3
2022-09-23T18:32:03.323Z,983.4
2022-09-23T18:34:04.311Z,983.4
2022-09-23T18:36:06.018Z,983.3
2022-09-23T18:38:07.020Z,983.3
2022-09-23T18:40:11.329Z,983.3
2022-09-23T18:44:11.821Z,983.4
2022-09-23T18:46:12.923Z,983.5
2022-09-23T18:48:14.416Z,983.4
2022-09-23T18:50:15.826Z,983.3
2022-09-23T18:52:17.229Z,983.3
2022-09-23T18:54:18.520Z,983.3
2022-09-23T18:56:20.669Z,983.4
2022-09-23T18:58:21.808Z,983.3
2022-09-23T19:00:23.246Z,983.4
2022-09-23T19:02:24.882Z,983.3
2022-09-23T19:04:26.539Z,983.4
2022-09-23T19:06:28.081Z,983.4
2022-09-23T19:08:29.704Z,983.3
2022-09-23T19:10:31.351Z,983.3
2022-09-23T19:12:32.520Z,983.3
2022-09-23T19:14:34.257Z,983.2
2022-09-23T19:16:35.549Z,983.2
2022-09-23T19:18:36.767Z,983.2
2022-09-23T19:20:38.302Z,983.2
2022-09-23T19:22:39.765Z,983.1
2022-09-23T19:24:41.257Z,983.1
2022-09-23T19:26:42.407Z,983.2
2022-09-23T19:28:43.716Z,983.3
2022-09-23T19:30:45.507Z,983.3
2022-09-23T19:32:47.290Z,983.2
2022-09-23T19:34:49.037Z,983.1
2022-09-23T19:36:50.877Z,983.1
2022-09-23T19:40:54.429Z,983.2
2022-09-23T19:42:56.266Z,983.2
2022-09-23T19:44:57.451Z,983.2
2022-09-23T19:46:58.419Z,983.2
2022-09-23T19:51:00.782Z,983.2
2022-09-23T19:53:02.675Z,983.2
2022-09-23T19:53:46.511Z,983.2
2022-09-23T19:55:48.400Z,983.1
2022-09-23T19:57:49.755Z,983.1
2022-09-23T19:59:50.948Z,983.1
2022-09-23T20:01:52.095Z,983.1
2022-09-23T20:03:53.715Z,983.1
2022-09-23T20:05:54.791Z,982.9
2022-09-23T20:07:55.806Z,982.9
2022-09-23T20:09:57.354Z,983
2022-09-23T20:11:59.047Z,983
2022-09-23T20:14:00.966Z,983.1
2022-09-23T20:16:02.656Z,983
2022-09-23T20:18:03.946Z,983.1
2022-09-23T20:20:05.109Z,983.1
2022-09-23T20:22:06.054Z,983
2022-09-23T20:24:07.092Z,983
2022-09-23T20:26:08.146Z,983.1
2022-09-23T20:28:09.645Z,983.1
2022-09-23T20:30:10.695Z,983
2022-09-23T20:32:12.006Z,983.1
2022-09-23T20:34:13.841Z,983
2022-09-23T20:36:14.896Z,983.1
2022-09-23T20:38:16.614Z,983.2
2022-09-23T20:40:18.336Z,983.2
2022-09-23T20:42:19.679Z,983.1
2022-09-23T20:44:20.989Z,983
2022-09-23T20:46:22.573Z,983.1
2022-09-23T20:48:23.618Z,983
2022-09-23T20:50:24.973Z,982.9
2022-09-23T20:52:26.374Z,983
2022-09-23T20:54:28.252Z,982.9
2022-09-23T20:56:29.502Z,982.8
2022-09-23T20:58:31.271Z,982.9
2022-09-23T21:00:32.422Z,983
2022-09-23T21:02:33.946Z,982.9
2022-09-23T21:04:35.062Z,982.9
2022-09-23T21:06:36.223Z,983
2022-09-23T21:08:37.938Z,982.9
2022-09-23T21:12:41.752Z,982.9
2022-09-23T21:14:42.684Z,982.9
2022-09-23T21:16:43.964Z,982.9
2022-09-23T21:18:45.004Z,982.8
2022-09-23T21:20:46.061Z,982.8
2022-09-23T21:22:47.942Z,982.9
2022-09-23T21:25:48.939Z,982.8
2022-09-23T21:26:51.087Z,982.8
2022-09-23T21:28:52.546Z,982.7
2022-09-23T21:30:54.239Z,982.7
2022-09-23T21:32:55.199Z,982.7
2022-09-23T21:34:56.530Z,982.7
2022-09-23T21:36:58.477Z,982.7
2022-09-23T21:39:00.036Z,982.7
2022-09-23T21:41:01.940Z,982.6
2022-09-23T21:43:03.552Z,982.6
2022-09-23T21:45:04.527Z,982.6
2022-09-23T21:47:06.355Z,982.7
2022-09-23T21:49:08.009Z,982.6
2022-09-23T21:51:09.615Z,982.6
2022-09-23T21:53:11.323Z,982.6
2022-09-23T21:55:12.279Z,982.5
2022-09-23T21:57:13.711Z,982.6
2022-09-23T21:59:15.277Z,982.6
2022-09-23T22:01:17.260Z,982.6
2022-09-23T22:03:18.506Z,982.6
2022-09-23T22:05:20.138Z,982.6
2022-09-23T22:07:21.955Z,982.6
2022-09-23T22:09:23.795Z,982.8
2022-09-23T22:11:25.455Z,982.8
2022-09-23T22:13:27.087Z,982.8
2022-09-23T22:15:28.730Z,982.9
2022-09-23T22:17:30.282Z,983
2022-09-23T22:19:31.365Z,983
2022-09-23T22:21:32.978Z,982.9
2022-09-23T22:23:34.775Z,982.9
2022-09-23T22:25:36.581Z,982.8
2022-09-23T22:27:37.593Z,982.9
2022-09-23T22:29:38.931Z,982.8
2022-09-23T22:31:40.751Z,982.8
2022-09-23T22:33:42.354Z,982.9
2022-09-23T22:35:43.555Z,982.8
2022-09-23T22:37:45.198Z,982.8
2022-09-23T22:39:46.400Z,982.8
2022-09-23T22:41:47.934Z,982.8
2022-09-23T22:43:49.709Z,982.8
2022-09-23T22:45:50.652Z,982.9
2022-09-23T22:47:51.961Z,982.9
2022-09-23T22:49:53.720Z,982.8
2022-09-23T22:51:54.769Z,982.8
2022-09-23T22:53:56.614Z,982.8
2022-09-23T22:55:58.054Z,982.8
2022-09-23T22:58:10.551Z,982.8
2022-09-23T23:00:00.963Z,982.8
2022-09-23T23:02:02.066Z,982.8
2022-09-23T23:04:04.076Z,982.8
2022-09-23T23:06:05.641Z,982.8
2022-09-23T23:08:07.239Z,982.7
2022-09-23T23:10:09.023Z,982.7
2022-09-23T23:12:10.797Z,982.6
2022-09-23T23:14:12.302Z,982.8
2022-09-23T23:16:13.287Z,982.7
2022-09-23T23:18:14.499Z,982.6
2022-09-23T23:20:16.413Z,982.6
2022-09-23T23:22:17.738Z,982.5
2022-09-23T23:24:18.994Z,982.5
2022-09-23T23:26:20.692Z,982.5
2022-09-23T23:28:21.900Z,982.6
2022-09-23T23:30:23.329Z,982.6
2022-09-23T23:32:24.673Z,982.5
2022-09-23T23:34:25.842Z,982.5
2022-09-23T23:36:27.010Z,982.5
2022-09-23T23:38:28.528Z,982.4
2022-09-23T23:40:29.966Z,982.4
2022-09-23T23:42:31.261Z,982.5
2022-09-23T23:44:33.062Z,982.4
2022-09-23T23:46:34.740Z,982.5
2022-09-23T23:48:36.188Z,982.5
2022-09-23T23:50:37.416Z,982.4
2022-09-23T23:52:38.712Z,982.4
2022-09-23T23:54:40.417Z,982.4
2022-09-23T23:56:42.322Z,982.3
2022-09-23T23:58:43.443Z,982.4
